Time;durP1;ratioP1;P1;durP2;ratioP2;P2;SDS_P1;SDS_P2;PMS_P1;PMS_P2;Temp;Humidity;BMP_temperature;BMP_pressure;BME280_temperature;BME280_humidity;BME280_pressure;Samples;Min_cycle;Max_cycle;Signal;HPM_P1;HPM_P2
2021/07/23 00:02:03;;;;;;;9.27;4.70;;;15.20;99.90;;;13.85;85.50;101627.22;3539268;39;102673;-40
2021/07/23 00:04:32;;;;;;;8.82;4.78;;;15.20;99.90;;;13.81;85.22;101630.41;3538811;39;102390;-40
2021/07/23 00:06:59;;;;;;;8.90;4.88;;;15.20;99.90;;;13.77;85.56;101625.56;3538913;39;102402;-41
2021/07/23 00:09:27;;;;;;;8.00;4.90;;;15.10;99.90;;;13.71;85.81;101626.41;3539217;39;102387;-40
2021/07/23 00:11:54;;;;;;;9.02;4.80;;;15.10;99.90;;;13.64;86.00;101627.28;3539180;39;102394;-40
2021/07/23 00:14:21;;;;;;;7.07;4.47;;;15.00;99.90;;;13.61;86.50;101622.22;3539367;39;102253;-40
2021/07/23 00:16:49;;;;;;;8.07;5.00;;;15.00;99.90;;;13.56;86.58;101629.41;3539192;39;102395;-40
2021/07/23 00:19:16;;;;;;;7.88;5.05;;;14.90;99.90;;;13.50;86.71;101620.97;3538787;39;102272;-40
2021/07/23 00:21:43;;;;;;;9.27;4.80;;;14.90;99.90;;;13.45;86.67;101620.78;3538933;39;103184;-40
2021/07/23 00:24:11;;;;;;;9.07;5.07;;;14.80;99.90;;;13.41;87.03;101621.38;3538795;39;102145;-40
2021/07/23 00:26:38;;;;;;;8.93;4.93;;;14.80;99.90;;;13.38;86.99;101628.09;3538607;39;102413;-40
2021/07/23 00:29:05;;;;;;;7.28;4.13;;;14.70;99.90;;;13.33;87.12;101625.16;3539799;39;103157;-40
2021/07/23 00:31:33;;;;;;;7.85;4.50;;;14.70;99.90;;;13.32;87.17;101621.59;3539549;39;104083;-40
2021/07/23 00:34:00;;;;;;;8.75;5.53;;;14.70;99.90;;;13.27;87.30;101620.53;3540309;39;102303;-40
2021/07/23 00:36:28;;;;;;;;;;;14.60;99.90;;;13.23;87.40;101623.69;3541275;39;102361;-40
2021/07/23 00:38:55;;;;;;;8.25;4.93;;;14.60;99.90;;;13.24;87.36;101617.16;3539945;39;103462;-40
2021/07/23 00:41:22;;;;;;;7.53;4.85;;;14.60;99.90;;;13.20;87.63;101615.03;3540145;39;102351;-42
2021/07/23 00:43:50;;;;;;;7.57;5.00;;;14.60;99.90;;;13.19;87.62;101618.84;3539155;39;103114;-40
2021/07/23 00:46:18;;;;;;;8.93;5.57;;;14.60;99.90;;;13.14;87.82;101614.00;3538999;39;102309;-40
2021/07/23 00:48:46;;;;;;;9.25;5.50;;;14.50;99.90;;;13.12;87.88;101613.34;3539930;39;102347;-40
2021/07/23 00:51:15;;;;;;;7.70;5.00;;;14.50;99.90;;;13.06;88.19;101611.47;3539055;39;102463;-41
2021/07/23 00:53:43;;;;;;;;;;;14.50;99.90;;;13.01;88.30;101616.72;3540467;39;103401;-43
2021/07/23 00:56:11;;;;;;;7.80;4.93;;;14.40;99.90;;;12.98;88.39;101611.69;3539898;39;102287;-40
2021/07/23 00:58:38;;;;;;;9.25;5.55;;;14.40;99.90;;;12.94;88.85;101608.50;3530653;39;103058;-40
2021/07/23 01:01:08;;;;;;;7.25;4.57;;;14.30;99.90;;;12.96;88.24;101609.13;3540573;39;102200;-40
2021/07/23 01:03:38;;;;;;;9.43;5.47;;;14.30;99.90;;;12.93;88.38;101615.03;3539889;39;102286;-40
2021/07/23 01:06:09;;;;;;;7.05;4.78;;;14.30;99.90;;;12.93;88.33;101601.34;3530572;39;103480;-40
2021/07/23 01:08:38;;;;;;;7.95;5.22;;;14.30;99.90;;;12.92;88.30;101606.00;3539563;39;102463;-42
2021/07/23 01:11:07;;;;;;;7.38;4.90;;;14.30;99.90;;;12.91;88.30;101604.31;3539632;39;102076;-40
2021/07/23 01:13:50;;;;;;;7.85;4.60;;;14.30;99.90;;;12.91;88.00;101611.66;3538829;39;102249;-40
2021/07/23 01:16:18;;;;;;;8.45;4.93;;;14.30;99.90;;;12.88;88.06;101607.47;3530497;39;104759;-42
2021/07/23 01:18:47;;;;;;;9.65;5.60;;;14.30;99.90;;;12.84;88.14;101600.69;3540060;39;102319;-40
2021/07/23 01:21:17;;;;;;;8.98;5.18;;;14.20;99.90;;;12.77;88.59;101592.50;3530596;39;102453;-40
2021/07/23 01:23:46;;;;;;;7.13;4.82;;;14.20;99.90;;;12.73;88.82;101604.06;3538564;39;102320;-40
2021/07/23 01:26:37;;;;;;;9.88;5.60;;;14.10;99.90;;;12.68;88.63;101590.16;3539732;39;102384;-40
2021/07/23 01:29:05;;;;;;;9.23;5.20;;;14.10;99.90;;;12.65;88.70;101599.63;3538570;39;103364;-40
2021/07/23 01:31:35;;;;;;;8.40;5.38;;;14.00;99.90;;;12.62;89.04;101591.81;3539616;39;102911;-41
2021/07/23 01:34:03;;;;;;;7.85;5.07;;;14.00;99.90;;;12.60;89.13;101593.94;3530495;39;103141;-41
2021/07/23 01:36:30;;;;;;;9.07;4.93;;;14.00;99.90;;;12.57;89.24;101595.16;3530236;39;102495;-39
2021/07/23 01:39:00;;;;;;;7.00;4.75;;;14.00;99.90;;;12.52;89.31;101592.22;3530456;39;106378;-40
2021/07/23 01:41:30;;;;;;;9.63;5.57;;;13.90;99.90;;;12.51;89.23;101591.38;3538570;39;102541;-40
2021/07/23 01:43:58;;;;;;;8.35;5.30;;;13.90;99.90;;;12.50;89.08;101592.44;3539431;39;102337;-39
2021/07/23 01:46:27;;;;;;;8.15;5.20;;;13.90;99.90;;;12.50;89.09;101595.19;3530349;39;102407;-40
2021/07/23 01:49:06;;;;;;;8.88;5.28;;;13.90;99.90;;;12.49;89.21;101590.75;3632940;22;103234;-38
2021/07/23 01:51:36;;;;;;;8.13;5.25;;;13.90;99.90;;;12.49;89.07;101592.63;3487417;40;102354;-38
2021/07/23 01:54:09;;;;;;;8.88;5.30;;;13.90;99.90;;;12.41;89.30;101579.97;3487509;40;103573;-38
2021/07/23 01:56:42;;;;;;;9.70;4.90;;;13.80;99.90;;;12.41;89.25;101590.09;3490185;39;102764;-38
2021/07/23 01:59:14;;;;;;;8.60;4.90;;;13.80;99.90;;;12.35;89.27;101589.88;3488765;40;104191;-38
2021/07/23 02:01:43;;;;;;;7.65;4.63;;;13.70;99.90;;;12.35;89.35;101591.75;3488620;40;102484;-38
2021/07/23 02:04:30;;;;;;;7.70;5.05;;;13.70;99.90;;;12.35;89.72;101594.50;3488455;40;102346;-38
2021/07/23 02:06:57;;;;;;;9.43;5.45;;;13.70;99.90;;;12.31;89.60;101583.09;3488719;40;102188;-38
2021/07/23 02:09:25;;;;;;;10.07;5.28;;;13.70;99.90;;;12.29;89.61;101587.09;3488240;40;102449;-38
2021/07/23 02:11:55;;;;;;;8.40;4.93;;;13.70;99.90;;;12.28;89.72;101582.69;3495752;40;105746;-38
2021/07/23 02:14:33;;;;;;;8.02;4.55;;;13.70;99.90;;;12.23;89.91;101588.75;3489107;40;103087;-38
2021/07/23 02:17:00;;;;;;;8.85;5.78;;;13.60;99.90;;;12.19;89.77;101580.13;3488511;40;102384;-38
2021/07/23 02:19:28;;;;;;;7.65;4.55;;;13.60;99.90;;;12.21;89.87;101591.72;3488382;40;103430;-38
2021/07/23 02:22:06;;;;;;;7.20;5.05;;;13.60;99.90;;;12.20;89.78;101586.44;3488615;40;102072;-39
2021/07/23 02:24:33;;;;;;;6.60;4.72;;;13.60;99.90;;;12.16;89.89;101586.00;3488669;40;102130;-38
2021/07/23 02:27:01;;;;;;;7.50;5.10;;;13.60;99.90;;;12.14;90.03;101576.31;3487429;40;102453;-38
2021/07/23 02:29:28;;;;;;;10.00;4.68;;;13.50;99.90;;;12.11;89.50;101580.31;3487347;40;102463;-38
2021/07/23 02:31:57;;;;;;;7.88;4.80;;;13.50;99.90;;;12.08;89.79;101578.84;3495524;40;102162;-38
2021/07/23 02:34:24;;;;;;;;;;;13.50;99.90;;;12.05;90.17;101576.47;3487924;40;104627;-38
2021/07/23 02:36:54;;;;;;;10.02;4.70;;;13.50;99.90;;;12.02;90.33;101576.91;3488909;40;103087;-38
2021/07/23 02:39:26;;;;;;;8.43;4.97;;;13.50;99.90;;;11.98;90.29;101566.56;3488230;40;103195;-39
2021/07/23 02:41:58;;;;;;;7.50;4.60;;;13.40;99.90;;;11.98;90.64;101574.75;3489268;40;102489;-38
2021/07/23 02:44:27;;;;;;;7.85;4.95;;;13.40;99.90;;;11.92;90.41;101571.75;3495527;40;103203;-38
2021/07/23 02:46:55;;;;;;;9.45;4.85;;;13.40;99.90;;;11.91;90.52;101569.25;3488697;40;102357;-38
2021/07/23 02:49:22;;;;;;;11.38;5.28;;;13.30;99.90;;;11.84;90.85;101563.75;3488495;40;102292;-38
2021/07/23 02:51:52;;;;;;;7.50;4.57;;;13.30;99.90;;;11.81;90.62;101572.34;3488628;40;102536;-38
2021/07/23 02:54:20;;;;;;;;;;;13.20;99.90;;;11.76;90.76;101567.47;3488991;40;104356;-38
2021/07/23 02:56:49;;;;;;;6.65;4.47;;;13.20;99.90;;;11.72;91.01;101559.91;3488544;40;103925;-38
2021/07/23 02:59:17;;;;;;;9.23;4.85;;;13.20;99.90;;;11.69;90.89;101555.69;3488648;40;102129;-39
2021/07/23 03:01:51;;;;;;;7.75;4.78;;;13.10;99.90;;;11.65;90.93;101559.88;3487638;40;102419;-38
2021/07/23 03:04:24;;;;;;;8.77;4.65;;;13.10;99.90;;;11.62;91.27;101558.38;3488407;40;102449;-38
2021/07/23 03:06:53;;;;;;;7.63;5.20;;;13.10;99.90;;;11.58;91.05;101554.34;3488128;40;102384;-38
2021/07/23 03:09:21;;;;;;;7.90;4.88;;;13.00;99.90;;;11.56;90.96;101561.91;3488535;40;103130;-38
2021/07/23 03:11:49;;;;;;;6.38;4.38;;;13.00;99.90;;;11.52;91.16;101555.16;3495470;40;102437;-38
2021/07/23 03:14:18;;;;;;;8.10;4.80;;;12.90;99.90;;;11.49;91.31;101555.56;3488265;40;103163;-38
2021/07/23 03:16:57;;;;;;;6.38;4.47;;;12.90;99.90;;;11.45;91.45;101551.56;3488629;40;102385;-38
2021/07/23 03:19:27;;;;;;;7.80;4.57;;;12.90;99.90;;;11.43;91.61;101549.00;3488227;40;103169;-38
2021/07/23 03:21:54;;;;;;;8.60;4.70;;;12.90;99.90;;;11.42;91.63;101543.78;3488993;40;102101;-38
2021/07/23 03:24:24;;;;;;;7.82;4.90;;;12.90;99.90;;;11.39;91.41;101545.00;3494764;40;102288;-38
2021/07/23 03:26:52;;;;;;;8.45;5.07;;;12.80;99.90;;;11.38;91.89;101537.84;3487362;40;102775;-38
2021/07/23 03:29:21;;;;;;;7.00;5.03;;;12.80;99.90;;;11.36;92.09;101545.41;3487233;40;104367;-38
2021/07/23 03:31:49;;;;;;;;;;;12.80;99.90;;;11.32;91.79;101544.94;3488853;40;103560;-38
2021/07/23 03:34:24;;;;;;;5.80;3.92;;;12.80;99.90;;;11.30;91.74;101541.56;3488141;40;103292;-38
2021/07/23 03:36:57;;;;;;;6.88;4.60;;;12.80;99.90;;;11.27;91.44;101541.13;3488213;40;102391;-38
2021/07/23 03:39:45;;;;;;;9.43;4.53;;;12.70;99.90;;;11.20;91.96;101536.47;3488189;40;102686;-38
2021/07/23 03:42:17;;;;;;;7.85;4.82;;;12.70;99.90;;;11.25;91.47;101543.22;3487227;40;103406;-38
2021/07/23 03:44:57;;;;;;;8.40;5.60;;;12.70;99.90;;;11.22;91.95;101547.19;3495164;40;104195;-38
2021/07/23 03:47:26;;;;;;;8.10;4.88;;;12.70;99.90;;;11.21;91.54;101540.88;3487281;40;102131;-38
2021/07/23 03:49:54;;;;;;;10.80;5.35;;;12.70;99.90;;;11.20;91.83;101538.38;3488348;40;103126;-38
2021/07/23 03:52:22;;;;;;;8.07;5.05;;;12.60;99.90;;;11.18;91.88;101538.56;3487916;40;103479;-38
2021/07/23 03:55:21;;;;;;;11.13;5.30;;;12.60;99.90;;;11.18;91.85;101535.81;3487991;40;102342;-38
2021/07/23 03:57:49;;;;;;;7.93;5.60;;;12.60;99.90;;;11.18;92.30;101537.72;3486783;40;102275;-38
2021/07/23 04:00:17;;;;;;;8.13;5.20;;;12.60;99.90;;;11.18;91.99;101546.75;3486918;40;102435;-38
2021/07/23 04:02:51;;;;;;;7.82;5.10;;;12.60;99.90;;;11.19;92.16;101534.78;3486571;40;102425;-40
2021/07/23 04:05:19;;;;;;;8.40;4.82;;;12.60;99.90;;;11.20;92.17;101532.91;3495212;40;102222;-41
2021/07/23 04:07:46;;;;;;;7.53;5.18;;;12.60;99.90;;;11.22;92.37;101539.84;3495015;40;103375;-41
2021/07/23 04:10:14;;;;;;;8.88;5.38;;;12.60;99.90;;;11.25;92.71;101526.81;3494840;40;104173;-41
2021/07/23 04:12:41;;;;;;;10.32;5.60;;;12.60;99.90;;;11.26;92.34;101528.50;3487984;40;102312;-40
2021/07/23 04:15:10;;;;;;;8.95;5.13;;;12.60;99.90;;;11.27;92.73;101530.19;3487462;40;104568;-41
2021/07/23 04:17:57;;;;;;;8.45;5.50;;;12.70;99.90;;;11.28;92.61;101521.00;3487699;40;102346;-41
2021/07/23 04:20:26;;;;;;;10.05;5.57;;;12.70;99.90;;;11.29;92.64;101528.97;3494884;40;105947;-41
2021/07/23 04:22:54;;;;;;;;;;;12.70;99.90;;;11.33;92.91;101523.94;3488939;40;102069;-40
2021/07/23 04:25:22;;;;;;;10.00;5.68;;;12.70;99.90;;;11.42;93.47;101524.66;3487484;40;104044;-41
2021/07/23 04:27:49;;;;;;;9.05;5.75;;;12.80;99.90;;;11.43;93.53;101523.59;3488182;40;103185;-38
2021/07/23 04:30:23;;;;;;;7.68;5.28;;;12.80;99.90;;;11.47;93.03;101525.69;3486677;40;103254;-38
2021/07/23 04:33:17;;;;;;;9.23;5.75;;;12.80;99.90;;;11.54;93.23;101528.47;3488189;40;102330;-38
2021/07/23 04:36:18;;;;;;;10.48;5.78;;;12.90;99.90;;;11.54;93.46;101520.28;3487602;40;102323;-38
2021/07/23 04:38:45;;;;;;;8.80;5.47;;;12.90;99.90;;;11.58;93.66;101521.56;3494669;40;104118;-38
2021/07/23 04:41:12;;;;;;;8.63;5.60;;;13.00;99.90;;;11.66;93.78;101520.56;3488109;40;103060;-39
2021/07/23 04:43:47;;;;;;;8.88;5.93;;;13.00;99.90;;;11.77;93.80;101527.34;3487651;40;102458;-38
2021/07/23 04:46:16;;;;;;;9.30;5.78;;;13.10;99.90;;;11.84;93.57;101525.47;3494362;40;103372;-38
2021/07/23 04:48:43;;;;;;;10.88;6.13;;;13.10;99.90;;;11.96;93.90;101523.00;3487809;40;102487;-38
2021/07/23 04:51:22;;;;;;;12.15;5.75;;;13.20;99.90;;;12.08;93.74;101518.66;3494692;40;102195;-38
2021/07/23 04:54:08;;;;;;;8.73;6.07;;;13.40;99.90;;;12.20;93.56;101521.66;3487412;40;102173;-38
2021/07/23 04:56:54;;;;;;;11.35;6.10;;;13.50;99.90;;;12.28;93.62;101525.22;3487723;40;102150;-41
2021/07/23 04:59:22;;;;;;;11.07;6.13;;;13.50;99.90;;;12.36;93.30;101522.28;3487419;40;103312;-41
2021/07/23 05:01:49;;;;;;;13.50;6.05;;;13.60;99.90;;;12.44;93.05;101524.81;3487272;40;102825;-41
2021/07/23 05:04:17;;;;;;;9.50;5.78;;;13.70;99.90;;;12.60;92.84;101520.03;3487339;40;102527;-41
2021/07/23 05:06:45;;;;;;;10.98;6.88;;;13.80;99.90;;;12.74;92.48;101518.13;3488086;40;103293;-40
2021/07/23 05:09:12;;;;;;;10.00;6.63;;;13.90;99.90;;;12.94;91.85;101529.06;3486311;40;104063;-40
2021/07/23 05:11:43;;;;;;;10.13;6.07;;;14.10;99.90;;;13.05;91.28;101525.72;3487874;40;102491;-41
2021/07/23 05:14:11;;;;;;;12.52;6.88;;;14.20;99.90;;;13.18;91.04;101530.34;3487294;40;102526;-40
2021/07/23 05:16:40;;;;;;;12.15;7.32;;;14.30;99.90;;;13.32;90.19;101530.31;3489032;40;104258;-41
2021/07/23 05:19:12;;;;;;;11.60;6.95;;;14.40;99.90;;;13.41;90.26;101534.53;3488974;40;102144;-41
2021/07/23 05:21:40;;;;;;;11.02;6.60;;;14.50;99.90;;;13.51;88.97;101534.09;3489047;40;102174;-40
2021/07/23 05:24:08;;;;;;;11.13;6.68;;;14.60;99.90;;;13.58;88.52;101526.69;3489044;40;102376;-40
2021/07/23 05:26:38;;;;;;;10.48;6.70;;;14.70;99.90;;;13.68;88.20;101529.00;3489476;40;102254;-40
2021/07/23 05:29:08;;;;;;;10.25;6.85;;;14.80;99.90;;;13.92;87.95;101532.03;3489129;40;102374;-41
2021/07/23 05:31:41;;;;;;;10.88;6.93;;;15.00;99.90;;;14.14;86.23;101537.22;3488711;40;102307;-40
2021/07/23 05:34:09;;;;;;;10.68;6.68;;;15.20;99.90;;;14.33;85.56;101538.19;3489462;40;102415;-38
2021/07/23 05:36:36;;;;;;;12.75;7.65;;;15.40;99.90;;;14.55;85.86;101540.56;3489177;40;102376;-38
2021/07/23 05:39:03;;;;;;;10.30;6.88;;;15.60;99.90;;;14.70;84.26;101535.59;3489400;40;102579;-38
2021/07/23 05:41:31;;;;;;;10.57;6.80;;;15.70;99.90;;;14.86;83.43;101525.19;3488419;40;103280;-38
2021/07/23 05:43:58;;;;;;;12.48;6.68;;;15.90;99.90;;;14.97;83.43;101535.41;3488711;40;102570;-37
2021/07/23 05:46:27;;;;;;;10.63;6.30;;;16.00;99.90;;;15.10;82.95;101535.28;3489071;40;103757;-38
2021/07/23 05:48:54;;;;;;;10.82;6.35;;;16.10;99.90;;;15.18;81.54;101528.66;3488760;40;102221;-38
2021/07/23 05:51:22;;;;;;;11.18;6.75;;;16.30;99.90;;;15.28;80.24;101528.16;3488937;40;102547;-38
2021/07/23 05:53:49;;;;;;;11.95;6.97;;;16.40;99.90;;;15.48;81.91;101530.69;3489126;40;102748;-38
2021/07/23 05:56:16;;;;;;;13.68;6.80;;;16.50;99.90;;;15.57;79.93;101531.22;3488731;40;103309;-38
2021/07/23 05:58:48;;;;;;;12.05;6.47;;;16.60;99.90;;;15.68;78.54;101530.47;3488557;40;102565;-39
2021/07/23 06:01:15;;;;;;;12.63;7.13;;;16.70;99.90;;;15.86;79.26;101527.94;3488973;40;103266;-38
2021/07/23 06:03:43;;;;;;;10.60;6.50;;;16.80;99.90;;;15.96;78.49;101526.34;3488962;40;102269;-38
2021/07/23 06:06:10;;;;;;;9.98;6.63;;;17.00;99.90;;;15.95;76.33;101523.81;3488784;40;102285;-39
2021/07/23 06:08:59;;;;;;;10.48;6.30;;;17.10;99.90;;;15.98;75.75;101522.53;3488717;40;102201;-38
2021/07/23 06:11:27;;;;;;;9.93;6.53;;;17.10;99.90;;;16.12;76.61;101531.44;3488603;40;104074;-38
2021/07/23 06:13:55;;;;;;;9.02;6.22;;;17.20;99.90;;;16.10;75.39;101532.53;3488803;40;102357;-37
2021/07/23 06:16:22;;;;;;;11.93;6.25;;;17.20;99.90;;;16.13;76.09;101525.69;3489212;40;102079;-38
2021/07/23 06:18:50;;;;;;;11.57;6.88;;;17.20;99.90;;;16.20;74.88;101520.97;3488661;40;102345;-38
2021/07/23 06:21:19;;;;;;;9.40;6.30;;;17.30;99.90;;;16.28;75.73;101521.69;3488503;40;102596;-39
2021/07/23 06:23:47;;;;;;;10.55;6.93;;;17.40;99.90;;;16.37;74.90;101521.13;3488114;40;102504;-38
2021/07/23 06:26:14;;;;;;;15.52;6.68;;;17.40;99.90;;;16.53;74.60;101519.63;3488874;40;103378;-38
2021/07/23 06:28:42;;;;;;;8.13;6.30;;;17.50;99.90;;;16.75;75.94;101516.31;3488469;40;103733;-39
2021/07/23 06:31:11;;;;;;;8.85;5.32;;;17.70;99.90;;;16.94;74.49;101511.53;3488207;40;103800;-39
2021/07/23 06:33:39;;;;;;;11.23;6.97;;;17.80;99.90;;;17.07;74.61;101520.66;3488481;40;102124;-38
2021/07/23 06:36:06;;;;;;;9.88;6.13;;;18.00;99.90;;;17.21;73.53;101519.38;3488672;40;102274;-38
2021/07/23 06:38:34;;;;;;;10.00;6.35;;;18.10;99.90;;;17.24;71.83;101523.56;3488739;40;103476;-39
2021/07/23 06:41:06;;;;;;;10.38;6.40;;;18.20;99.90;;;17.39;73.42;101526.66;3488727;40;102239;-38
2021/07/23 06:43:34;;;;;;;11.07;6.00;;;18.40;99.90;;;17.43;70.82;101526.16;3488412;40;102934;-38
2021/07/23 06:46:02;;;;;;;10.27;5.95;;;18.40;99.90;;;17.49;71.77;101526.06;3488480;40;103163;-38
2021/07/23 06:48:29;;;;;;;9.50;5.50;;;18.50;99.90;;;17.61;69.09;101525.19;3488424;40;103341;-38
2021/07/23 06:50:57;;;;;;;8.75;5.47;;;18.60;99.90;;;17.64;70.10;101521.97;3489006;40;102653;-38
2021/07/23 06:53:24;;;;;;;8.77;6.03;;;18.60;99.90;;;17.76;69.37;101524.66;3489052;40;102511;-38
2021/07/23 06:55:51;;;;;;;10.65;6.00;;;18.70;99.90;;;17.76;68.45;101531.03;3488178;40;102308;-39
2021/07/23 06:58:19;;;;;;;9.35;5.75;;;18.80;99.90;;;17.83;69.02;101522.63;3488593;40;102243;-38
2021/07/23 07:00:47;;;;;;;9.60;5.78;;;18.80;99.90;;;18.03;70.06;101524.13;3488505;40;102164;-38
2021/07/23 07:03:15;;;;;;;8.70;5.93;;;18.90;99.90;;;18.21;70.68;101532.22;3488994;40;102576;-38
2021/07/23 07:05:43;;;;;;;9.75;5.30;;;19.10;99.90;;;18.36;70.54;101525.31;3488677;40;102192;-39
2021/07/23 07:08:10;;;;;;;8.30;5.20;;;19.20;99.90;;;18.36;68.95;101533.63;3488472;40;102441;-38
2021/07/23 07:10:37;;;;;;;7.88;5.60;;;19.30;99.90;;;18.35;66.53;101538.28;3488512;40;103096;-38
2021/07/23 07:13:05;;;;;;;11.45;5.80;;;19.30;99.90;;;18.23;65.37;101538.34;3488427;40;102717;-38
2021/07/23 07:15:32;;;;;;;10.73;5.30;;;19.30;99.90;;;18.43;68.06;101534.28;3487919;40;103317;-39
2021/07/23 07:18:02;;;;;;;9.25;5.95;;;19.40;99.90;;;18.59;67.56;101538.16;3488453;40;102219;-39
2021/07/23 07:20:31;;;;;;;7.70;5.65;;;19.50;99.90;;;18.81;66.36;101540.19;3488550;40;102213;-38
2021/07/23 07:23:00;;;;;;;7.30;4.80;;;19.60;99.90;;;18.93;67.66;101529.88;3488862;40;102479;-38
2021/07/23 07:25:31;;;;;;;9.00;5.22;;;19.80;99.90;;;18.95;66.23;101544.28;3488048;40;102303;-38
2021/07/23 07:28:00;;;;;;;10.18;5.57;;;19.90;99.90;;;18.93;64.97;101531.81;3488521;40;102219;-39
2021/07/23 07:30:27;;;;;;;10.52;5.05;;;19.90;99.90;;;19.04;65.18;101539.19;3488831;40;102303;-39
2021/07/23 07:32:55;;;;;;;10.05;5.30;;;20.00;99.90;;;19.19;67.12;101533.06;3488272;40;102398;-39
2021/07/23 07:35:22;;;;;;;8.73;5.53;;;20.00;99.90;;;19.26;65.36;101530.97;3488637;40;103312;-39
2021/07/23 07:37:49;;;;;;;8.02;5.38;;;20.20;99.90;;;19.35;66.02;101531.38;3487278;40;103637;-38
2021/07/23 07:40:17;;;;;;;9.75;5.10;;;20.20;99.90;;;19.48;65.37;101535.69;3488634;40;103822;-39
2021/07/23 07:42:44;;;;;;;7.68;4.57;;;20.40;99.90;;;19.66;64.93;101539.25;3488465;40;102182;-39
2021/07/23 07:45:12;;;;;;;8.40;5.32;;;20.50;99.90;;;19.64;63.13;101531.22;3488342;40;103352;-38
2021/07/23 07:47:41;;;;;;;7.57;4.88;;;20.50;99.90;;;19.62;60.46;101533.38;3591612;22;102387;31
2021/07/23 07:50:10;;;;;;;8.70;4.68;;;20.50;99.90;;;19.62;60.61;101530.63;3470966;40;103074;-39
2021/07/23 07:52:38;;;;;;;6.90;4.68;;;20.60;99.90;;;19.78;61.63;101530.84;3477113;40;103452;-40
2021/07/23 07:55:05;;;;;;;9.68;5.97;;;20.60;99.90;;;19.92;59.31;101526.63;3478743;39;102205;-41
2021/07/23 07:57:33;;;;;;;8.30;4.75;;;20.70;99.90;;;19.90;58.49;101525.16;3479059;39;102603;-40
2021/07/23 08:00:00;;;;;;;7.28;4.30;;;20.70;99.90;;;19.92;59.85;101521.09;3469465;40;102328;-40
2021/07/23 08:02:28;;;;;;;8.80;4.65;;;20.80;99.90;;;19.88;59.00;101525.41;3469651;39;102407;-40
2021/07/23 08:04:55;;;;;;;7.28;4.70;;;20.80;99.90;;;19.77;58.66;101523.63;3468569;40;103189;-41
2021/07/23 08:07:29;;;;;;;6.88;4.25;;;20.80;99.90;;;19.91;60.96;101522.19;3468844;40;102359;-40
2021/07/23 08:09:59;;;;;;;6.82;4.05;;;20.80;99.90;;;19.92;58.80;101523.84;3469409;39;102231;-40
2021/07/23 08:12:26;;;;;;;7.40;4.45;;;20.90;99.90;;;19.95;58.84;101520.56;3469624;39;102349;-40
2021/07/23 08:14:53;;;;;;;6.97;4.60;;;20.90;99.90;;;20.06;60.56;101520.66;3468139;40;102337;-40
2021/07/23 08:17:22;;;;;;;9.23;4.55;;;21.00;99.90;;;19.93;58.97;101519.13;3469680;39;102521;-40
2021/07/23 08:19:49;;;;;;;10.52;4.55;;;20.90;99.90;;;19.98;59.22;101513.66;3468521;40;103253;-40
2021/07/23 08:22:17;;;;;;;7.65;4.30;;;21.00;99.90;;;20.14;59.54;101513.84;3469206;40;102173;-40
2021/07/23 08:24:45;;;;;;;8.25;4.47;;;21.00;99.90;;;20.35;57.71;101512.94;3468222;40;102100;-40
2021/07/23 08:27:14;;;;;;;8.30;4.70;;;21.20;99.90;;;20.48;58.97;101506.16;3468563;40;102379;-41
2021/07/23 08:29:42;;;;;;;9.55;4.72;;;21.30;99.90;;;20.33;57.71;101514.28;3468956;40;102165;-40
2021/07/23 08:32:11;;;;;;;12.40;4.50;;;21.30;99.90;;;20.69;61.09;101503.56;3469635;39;102159;-40
2021/07/23 08:34:40;;;;;;;6.72;4.57;;;21.50;99.90;;;20.72;57.88;101500.25;3468494;40;103112;-42
2021/07/23 08:37:08;;;;;;;8.18;4.38;;;21.50;99.90;;;20.90;60.47;101506.50;3469605;39;102386;-40
2021/07/23 08:39:35;;;;;;;;;;;21.70;99.90;;;20.85;58.05;101507.31;3469484;40;103314;-40
2021/07/23 08:42:28;;;;;;;6.82;4.18;;;21.80;99.90;;;20.95;57.00;101509.31;3469330;39;102698;-40
2021/07/23 08:44:58;;;;;;;8.20;4.68;;;21.80;99.90;;;20.96;56.53;101508.22;3469278;39;103719;-40
2021/07/23 08:47:27;;;;;;;8.32;4.65;;;21.90;99.90;;;20.90;56.76;101506.50;3468548;40;103278;-40
2021/07/23 08:49:56;;;;;;;6.40;3.67;;;21.90;99.90;;;20.77;57.50;101502.22;3469467;40;102353;-40
2021/07/23 08:52:44;;;;;;;6.72;3.97;;;21.80;99.90;;;20.96;58.00;101499.91;3470486;39;102465;-40
2021/07/23 08:55:14;;;;;;;6.35;4.03;;;21.90;99.90;;;21.01;56.83;101494.41;3471171;39;102225;-38
2021/07/23 08:57:44;;;;;;;7.13;4.22;;;21.90;99.90;;;21.21;56.94;101498.38;3501359;40;102505;-40
2021/07/23 09:00:15;;;;;;;9.63;4.93;;;22.00;99.90;;;21.17;55.84;101494.47;3470722;39;102265;-40
2021/07/23 09:03:11;;;;;;;8.43;4.70;;;22.10;99.90;;;21.35;55.24;101496.81;3470358;39;102417;-39
2021/07/23 09:05:45;;;;;;;6.38;4.55;;;22.10;99.90;;;21.51;53.67;101492.16;3469573;40;104117;-40
2021/07/23 09:08:16;;;;;;;7.32;4.60;;;22.20;99.90;;;21.42;55.66;101493.78;3470937;39;102372;-41
2021/07/23 09:11:02;;;;;;;9.27;5.05;;;22.20;99.90;;;21.44;56.48;101487.97;3470344;40;102166;-40
2021/07/23 09:13:30;;;;;;;7.45;5.10;;;22.30;99.90;;;21.31;55.44;101490.13;3469580;40;102430;-40
2021/07/23 09:15:58;;;;;;;6.25;4.43;;;22.30;99.90;;;21.39;55.60;101481.28;3470518;39;104192;-40
2021/07/23 09:18:33;;;;;;;7.72;4.53;;;22.30;99.90;;;21.41;53.50;101473.53;3469812;40;102248;-40
2021/07/23 09:21:03;;;;;;;7.15;4.65;;;22.30;99.90;;;21.25;53.99;101477.34;3470726;39;102216;-39
2021/07/23 09:23:39;;;;;;;5.93;3.80;;;22.20;99.90;;;21.53;56.22;101475.25;3469159;40;103389;-41
2021/07/23 09:26:11;;;;;;;6.93;4.43;;;22.30;99.90;;;21.64;55.41;101467.81;3470093;40;102387;-40
2021/07/23 09:28:45;;;;;;;9.73;4.63;;;22.40;99.90;;;21.77;54.93;101470.09;3470169;40;102678;-40
2021/07/23 09:31:24;;;;;;;6.55;4.07;;;22.60;99.90;;;21.96;55.30;101478.75;3470575;39;102692;-40
2021/07/23 09:33:59;;;;;;;6.45;3.95;;;22.70;99.90;;;22.10;56.30;101475.44;3470918;39;102460;-42
2021/07/23 09:36:28;;;;;;;7.05;4.72;;;22.80;99.90;;;22.12;52.39;101470.44;3470725;39;102269;-40
2021/07/23 09:39:10;;;;;;;6.15;4.43;;;22.90;99.90;;;22.09;51.75;101476.56;3470643;39;102524;-40
2021/07/23 09:41:37;;;;;;;8.02;4.38;;;23.00;99.90;;;21.97;51.52;101463.75;3469524;40;104302;-40
2021/07/23 09:44:12;;;;;;;7.00;4.72;;;22.90;99.90;;;22.13;52.13;101461.00;3470422;39;102558;-40
2021/07/23 09:46:44;;;;;;;7.55;5.10;;;22.90;99.90;;;21.97;52.86;101458.19;3470592;39;103355;-40
2021/07/23 09:49:26;;;;;;;8.23;4.35;;;22.90;99.90;;;22.28;52.79;101449.06;3469341;40;102234;-39
2021/07/23 09:51:55;;;;;;;7.90;4.60;;;23.00;99.90;;;22.19;51.45;101443.22;3470188;40;103206;-40
2021/07/23 09:54:23;;;;;;;8.35;4.88;;;23.00;99.90;;;22.45;53.68;101440.47;3470441;39;102513;-40
2021/07/23 09:56:51;;;;;;;9.65;5.00;;;23.20;99.90;;;22.60;52.18;101436.03;3470474;39;103089;-42
2021/07/23 09:59:22;;;;;;;8.65;4.78;;;23.30;99.90;;;22.75;51.60;101427.66;3470451;39;102621;-40
2021/07/23 10:02:00;;;;;;;8.00;5.22;;;23.40;99.90;;;22.73;51.32;101437.41;3469527;40;103251;-40
2021/07/23 10:04:36;;;;;;;9.07;5.17;;;23.50;99.90;;;22.43;52.42;101428.78;3469566;40;103312;-42
2021/07/23 10:07:24;;;;;;;8.60;4.88;;;23.40;99.90;;;22.60;53.97;101424.91;3469223;40;104415;-41
2021/07/23 10:09:56;;;;;;;9.23;5.40;;;23.40;99.90;;;22.68;51.06;101418.78;3470477;39;102384;-40
2021/07/23 10:12:25;;;;;;;7.22;5.10;;;23.50;99.90;;;22.75;51.45;101432.41;3470456;39;102235;-39
2021/07/23 10:14:55;;;;;;;9.43;5.28;;;23.50;99.90;;;22.82;51.30;101428.22;3470296;40;102283;-40
2021/07/23 10:17:24;;;;;;;7.32;4.78;;;23.50;99.90;;;22.97;51.28;101410.66;3470347;39;102943;-40
2021/07/23 10:19:56;;;;;;;8.32;4.55;;;23.60;99.90;;;23.03;51.33;101410.66;3470103;39;102354;-43